createdAt,value
2017-08-29T00:00:48.412Z,0
2017-08-29T00:01:48.218Z,0
2017-08-29T00:02:48.539Z,0
2017-08-29T00:03:48.275Z,0
2017-08-29T00:04:48.921Z,0
2017-08-29T00:05:48.974Z,0
2017-08-29T00:06:49.274Z,0
2017-08-29T00:07:49.103Z,0
2017-08-29T00:08:49.351Z,0
2017-08-29T00:09:49.071Z,0
2017-08-29T00:10:49.763Z,0
2017-08-29T00:11:49.478Z,0
2017-08-29T00:12:49.187Z,0
2017-08-29T00:13:49.546Z,0
2017-08-29T00:14:49.241Z,0
2017-08-29T00:15:49.273Z,0
2017-08-29T00:16:49.018Z,0
2017-08-29T00:17:49.970Z,0
2017-08-29T00:18:49.380Z,0
2017-08-29T00:19:50.344Z,0
2017-08-29T00:20:50.360Z,0
2017-08-29T00:21:50.115Z,0
2017-08-29T00:22:50.411Z,0
2017-08-29T00:23:50.182Z,0
2017-08-29T00:24:49.887Z,0
2017-08-29T00:25:50.244Z,0
2017-08-29T00:26:50.279Z,0
2017-08-29T00:27:50.574Z,0
2017-08-29T00:28:49.977Z,0
2017-08-29T00:29:50.638Z,0
2017-08-29T00:31:45.061Z,0
2017-08-29T00:32:13.045Z,0
2017-08-29T00:33:13.379Z,0
2017-08-29T00:34:13.120Z,0
2017-08-29T00:35:13.121Z,0
2017-08-29T00:36:13.218Z,0
2017-08-29T00:37:12.642Z,0
2017-08-29T00:38:13.322Z,0
2017-08-29T00:39:13.343Z,0
2017-08-29T00:40:13.332Z,0
2017-08-29T00:41:13.067Z,0
2017-08-29T00:42:14.250Z,0
2017-08-29T00:43:13.974Z,0
2017-08-29T00:44:14.304Z,0
2017-08-29T00:45:14.433Z,0
2017-08-29T00:46:14.415Z,0
2017-08-29T00:47:14.443Z,0
2017-08-29T00:48:14.180Z,0
2017-08-29T00:49:14.473Z,0
2017-08-29T00:50:13.950Z,0
2017-08-29T00:51:14.292Z,0
2017-08-29T00:52:14.306Z,0
2017-08-29T00:53:14.336Z,0
2017-08-29T00:54:14.070Z,0
2017-08-29T00:55:15.097Z,0
2017-08-29T00:56:14.865Z,0
2017-08-29T00:57:14.193Z,0
2017-08-29T00:58:14.876Z,0
2017-08-29T00:59:14.895Z,0
2017-08-29T01:00:15.245Z,0
2017-08-29T01:01:14.976Z,0
2017-08-29T01:02:15.006Z,0
2017-08-29T01:03:15.026Z,0
2017-08-29T01:04:15.366Z,0
2017-08-29T01:05:15.433Z,0
2017-08-29T01:06:15.111Z,0
2017-08-29T01:07:15.479Z,0
2017-08-29T01:08:14.888Z,0
2017-08-29T01:09:15.546Z,0
2017-08-29T01:10:15.576Z,0
2017-08-29T01:11:15.912Z,0
2017-08-29T01:12:15.948Z,0
2017-08-29T01:13:15.670Z,0
2017-08-29T01:14:15.706Z,0
2017-08-29T01:15:15.430Z,0
2017-08-29T01:16:15.762Z,0
2017-08-29T01:17:16.714Z,0
2017-08-29T01:18:16.419Z,0
2017-08-29T01:19:16.454Z,0
2017-08-29T01:20:16.260Z,0
2017-08-29T01:21:16.907Z,0
2017-08-29T01:22:16.918Z,0
2017-08-29T01:23:16.675Z,0
2017-08-29T01:24:16.971Z,0
2017-08-29T01:25:17.315Z,0
2017-08-29T01:26:17.341Z,0
2017-08-29T01:27:17.055Z,0
2017-08-29T01:28:17.418Z,0
2017-08-29T01:29:17.464Z,0
2017-08-29T01:30:17.490Z,0
2017-08-29T01:31:17.193Z,0
2017-08-29T01:32:17.538Z,0
2017-08-29T01:33:17.267Z,0
2017-08-29T01:34:17.599Z,0
2017-08-29T01:35:17.628Z,0
2017-08-29T01:36:17.029Z,0
2017-08-29T01:37:17.402Z,0
2017-08-29T01:38:17.404Z,0
2017-08-29T01:39:18.092Z,0
2017-08-29T01:40:18.425Z,0
2017-08-29T01:41:18.127Z,0
2017-08-29T01:42:18.158Z,0
2017-08-29T01:43:18.204Z,0
2017-08-29T01:44:18.531Z,0
2017-08-29T01:45:18.560Z,0
2017-08-29T01:46:18.618Z,0
2017-08-29T01:47:18.310Z,0
2017-08-29T01:48:18.053Z,0
2017-08-29T01:49:18.103Z,0
2017-08-29T01:50:17.805Z,0
2017-08-29T01:51:18.809Z,0
2017-08-29T01:52:18.825Z,0
2017-08-29T01:53:18.830Z,0
2017-08-29T01:54:19.166Z,0
2017-08-29T01:55:18.921Z,0
2017-08-29T01:56:19.572Z,0
2017-08-29T01:57:19.292Z,0
2017-08-29T01:58:19.317Z,0
2017-08-29T01:59:19.655Z,0
2017-08-29T02:00:19.394Z,0
2017-08-29T02:01:19.731Z,0
2017-08-29T02:02:19.427Z,0
2017-08-29T02:03:19.787Z,0
2017-08-29T02:04:19.822Z,0
2017-08-29T02:05:19.227Z,0
2017-08-29T02:06:19.262Z,0
2017-08-29T02:07:19.902Z,0
2017-08-29T02:08:20.560Z,0
2017-08-29T02:09:19.932Z,0
2017-08-29T02:10:19.954Z,0
2017-08-29T02:11:20.563Z,0
2017-08-29T02:12:20.626Z,0
2017-08-29T02:13:20.328Z,0
2017-08-29T02:14:20.940Z,0
2017-08-29T02:15:20.956Z,0
2017-08-29T02:16:20.993Z,0
2017-08-29T02:17:21.025Z,0
2017-08-29T02:18:20.754Z,0
2017-08-29T02:19:20.775Z,0
2017-08-29T02:20:21.130Z,0
2017-08-29T02:21:21.171Z,0
2017-08-29T02:22:20.900Z,0
2017-08-29T02:23:21.547Z,0
2017-08-29T02:24:21.220Z,0
2017-08-29T02:25:21.071Z,0
2017-08-29T02:26:22.080Z,0
2017-08-29T02:27:21.751Z,0
2017-08-29T02:28:21.511Z,0
2017-08-29T02:29:22.483Z,0
2017-08-29T02:30:22.479Z,0
2017-08-29T02:31:21.559Z,0
2017-08-29T02:32:22.538Z,0
2017-08-29T02:33:22.248Z,0
2017-08-29T02:34:22.838Z,0
2017-08-29T02:35:22.882Z,0
2017-08-29T02:36:22.952Z,0
2017-08-29T02:37:22.942Z,0
2017-08-29T02:38:22.979Z,0
2017-08-29T02:39:23.010Z,0
2017-08-29T02:40:22.835Z,0
2017-08-29T02:41:23.082Z,0
2017-08-29T02:42:22.514Z,0
2017-08-29T02:43:23.485Z,0
2017-08-29T02:44:23.469Z,0
2017-08-29T02:45:23.201Z,0
2017-08-29T02:46:23.564Z,0
2017-08-29T02:47:23.572Z,0
2017-08-29T02:48:23.613Z,0
2017-08-29T02:49:23.637Z,0
2017-08-29T02:50:23.378Z,0
2017-08-29T02:51:23.754Z,0
2017-08-29T02:52:23.145Z,0
2017-08-29T02:53:23.784Z,0
2017-08-29T02:54:23.819Z,0
2017-08-29T02:55:24.149Z,0
2017-08-29T02:56:23.875Z,0
2017-08-29T02:57:24.170Z,0
2017-08-29T02:58:24.514Z,0
2017-08-29T02:59:24.544Z,0
2017-08-29T03:00:24.572Z,0
2017-08-29T03:01:24.305Z,0
2017-08-29T03:02:24.315Z,0
2017-08-29T03:03:24.663Z,0
2017-08-29T03:04:24.752Z,0
2017-08-29T03:05:24.730Z,0
2017-08-29T03:06:24.776Z,0
2017-08-29T03:07:24.850Z,0
2017-08-29T03:08:24.136Z,0
2017-08-29T03:09:24.544Z,0
2017-08-29T03:10:24.588Z,0
2017-08-29T03:11:24.625Z,0
2017-08-29T03:12:24.916Z,0
2017-08-29T03:13:24.652Z,0
2017-08-29T03:14:25.291Z,0
2017-08-29T03:15:25.142Z,0
2017-08-29T03:16:24.735Z,0
2017-08-29T03:17:25.086Z,0
2017-08-29T03:18:24.485Z,0
2017-08-29T03:19:25.435Z,0
2017-08-29T03:20:24.848Z,0
2017-08-29T03:21:25.781Z,0
2017-08-29T03:22:25.488Z,0
2017-08-29T03:23:25.595Z,0
2017-08-29T03:24:25.864Z,0
2017-08-29T03:25:25.286Z,0
2017-08-29T03:26:26.226Z,0
2017-08-29T03:27:25.939Z,0
2017-08-29T03:28:26.000Z,0
2017-08-29T03:29:26.010Z,0
2017-08-29T03:30:26.372Z,0
2017-08-29T03:31:26.407Z,0
2017-08-29T03:32:26.111Z,0
2017-08-29T03:33:26.450Z,0
2017-08-29T03:34:26.449Z,0
2017-08-29T03:35:26.793Z,0
2017-08-29T03:36:26.488Z,0
2017-08-29T03:37:26.857Z,0
2017-08-29T03:38:26.270Z,0
2017-08-29T03:39:26.893Z,0
2017-08-29T03:40:26.925Z,0
2017-08-29T03:41:26.970Z,0
2017-08-29T03:42:27.303Z,0
2017-08-29T03:43:26.744Z,0
2017-08-29T03:44:26.478Z,0
2017-08-29T03:45:27.726Z,0
2017-08-29T03:46:27.456Z,0
2017-08-29T03:47:27.807Z,0
2017-08-29T03:48:27.528Z,0
2017-08-29T03:49:27.566Z,0
2017-08-29T03:50:28.206Z,0
2017-08-29T03:51:28.197Z,0
2017-08-29T03:52:28.239Z,0
2017-08-29T03:53:27.046Z,0
2017-08-29T03:54:27.994Z,0
2017-08-29T03:55:28.605Z,0
2017-08-29T03:56:28.311Z,0
2017-08-29T03:57:28.368Z,0
2017-08-29T03:58:28.676Z,0
2017-08-29T03:59:28.377Z,0
2017-08-29T04:00:28.979Z,0
2017-08-29T04:01:28.863Z,0
2017-08-29T04:02:28.893Z,0
2017-08-29T04:03:28.932Z,0
2017-08-29T04:04:28.312Z,0
2017-08-29T04:05:28.664Z,0
2017-08-29T04:06:29.396Z,5
2017-08-29T04:07:29.542Z,5
2017-08-29T04:08:29.523Z,5
2017-08-29T04:09:29.177Z,5
2017-08-29T04:10:29.669Z,5
2017-08-29T04:11:29.246Z,5
2017-08-29T04:12:29.250Z,5
2017-08-29T04:13:29.623Z,5
2017-08-29T04:14:29.337Z,10
2017-08-29T04:15:29.684Z,10
2017-08-29T04:16:29.717Z,10
2017-08-29T04:17:29.112Z,10
2017-08-29T04:18:30.156Z,10
2017-08-29T04:19:29.879Z,15
2017-08-29T04:20:29.909Z,15
2017-08-29T04:21:29.940Z,15
2017-08-29T04:22:30.645Z,15
2017-08-29T04:23:30.359Z,20
2017-08-29T04:24:30.390Z,20
2017-08-29T04:25:30.416Z,20
2017-08-29T04:26:30.117Z,20
2017-08-29T04:27:30.834Z,25
2017-08-29T04:28:30.857Z,25
2017-08-29T04:29:30.888Z,25
2017-08-29T04:30:30.930Z,25
2017-08-29T04:31:30.957Z,30
2017-08-29T04:32:30.670Z,30
2017-08-29T04:33:30.697Z,30
2017-08-29T04:34:31.046Z,35
2017-08-29T04:35:31.081Z,35
2017-08-29T04:36:30.777Z,35
2017-08-29T04:37:31.128Z,35
2017-08-29T04:38:30.860Z,40
2017-08-29T04:39:30.575Z,40
2017-08-29T04:40:31.733Z,40
2017-08-29T04:41:31.442Z,45
2017-08-29T04:42:31.795Z,45
2017-08-29T04:43:31.824Z,45
2017-08-29T04:44:31.846Z,50
2017-08-29T04:45:31.912Z,50
2017-08-29T04:46:31.927Z,50
2017-08-29T04:47:31.635Z,55
2017-08-29T04:48:31.978Z,55
2017-08-29T04:49:32.008Z,55
2017-08-29T04:50:32.037Z,60
2017-08-29T04:51:32.070Z,60
2017-08-29T04:52:31.786Z,60
2017-08-29T04:53:32.127Z,65
2017-08-29T04:54:32.165Z,65
2017-08-29T04:55:31.882Z,65
2017-08-29T04:56:32.231Z,70
2017-08-29T04:57:31.945Z,70
2017-08-29T04:58:31.974Z,75
2017-08-29T04:59:32.361Z,75
2017-08-29T05:00:32.393Z,75
2017-08-29T05:01:32.122Z,80
2017-08-29T05:02:32.187Z,80
2017-08-29T05:03:32.648Z,80
2017-08-29T05:04:33.351Z,85
2017-08-29T05:05:33.382Z,85
2017-08-29T05:06:33.103Z,85
2017-08-29T05:07:33.129Z,90
2017-08-29T05:08:33.473Z,90
2017-08-29T05:09:33.209Z,90
2017-08-29T05:10:33.230Z,95
2017-08-29T05:11:33.255Z,95
2017-08-29T05:12:32.985Z,95
2017-08-29T05:13:33.700Z,100
2017-08-29T05:14:33.427Z,100
2017-08-29T05:15:33.452Z,100
2017-08-29T05:16:33.788Z,105
2017-08-29T05:17:33.813Z,105
2017-08-29T05:18:33.564Z,105
2017-08-29T05:19:33.900Z,110
2017-08-29T05:20:33.270Z,110
2017-08-29T05:21:34.053Z,110
2017-08-29T05:22:34.050Z,115
2017-08-29T05:23:34.075Z,115
2017-08-29T05:24:34.417Z,115
2017-08-29T05:25:34.449Z,120
2017-08-29T05:26:34.482Z,120
2017-08-29T05:27:34.521Z,125
2017-08-29T05:28:34.550Z,120
2017-08-29T05:29:34.580Z,125
2017-08-29T05:30:34.612Z,130
2017-08-29T05:31:34.320Z,135
2017-08-29T05:32:34.042Z,155
2017-08-29T05:33:34.760Z,150
2017-08-29T05:34:34.780Z,210
2017-08-29T05:35:34.165Z,305
2017-08-29T05:36:35.216Z,360
2017-08-29T05:37:35.239Z,260
2017-08-29T05:38:35.274Z,170
2017-08-29T05:39:34.678Z,165
2017-08-29T05:40:35.409Z,165
2017-08-29T05:41:35.470Z,205
2017-08-29T05:42:35.168Z,230
2017-08-29T05:43:35.204Z,210
2017-08-29T05:44:35.230Z,190
2017-08-29T05:45:35.570Z,205
2017-08-29T05:46:35.297Z,210
2017-08-29T05:47:35.635Z,200
2017-08-29T05:48:35.673Z,205
2017-08-29T05:49:35.698Z,205
2017-08-29T05:50:35.424Z,205
2017-08-29T05:51:35.771Z,225
2017-08-29T05:52:35.157Z,320
2017-08-29T05:53:35.878Z,435
2017-08-29T05:54:35.921Z,670
2017-08-29T05:55:35.631Z,810
2017-08-29T05:56:35.993Z,880
2017-08-29T05:57:36.007Z,970
2017-08-29T05:58:36.103Z,955
2017-08-29T05:59:35.798Z,895
2017-08-29T06:00:36.114Z,975
2017-08-29T06:01:36.140Z,1010
2017-08-29T06:02:35.559Z,1030
2017-08-29T06:03:36.291Z,1070
2017-08-29T06:04:37.046Z,1105
2017-08-29T06:05:37.049Z,1140
2017-08-29T06:06:37.086Z,1120
2017-08-29T06:07:36.916Z,1100
2017-08-29T06:08:36.528Z,1125
2017-08-29T06:09:37.313Z,1065
2017-08-29T06:10:37.704Z,985
2017-08-29T06:11:37.067Z,925
2017-08-29T06:12:38.372Z,1095
2017-08-29T06:13:38.227Z,1260
2017-08-29T06:14:37.908Z,1310
2017-08-29T06:15:37.957Z,1360
2017-08-29T06:16:38.297Z,1400
2017-08-29T06:17:38.567Z,1405
2017-08-29T06:18:38.070Z,1400
2017-08-29T06:19:37.785Z,1390
2017-08-29T06:20:38.840Z,1320
2017-08-29T06:21:38.885Z,1300
2017-08-29T06:22:38.914Z,1315
2017-08-29T06:23:38.630Z,1340
2017-08-29T06:24:38.985Z,1365
2017-08-29T06:25:39.033Z,1385
2017-08-29T06:26:39.061Z,1400
2017-08-29T06:27:38.474Z,1400
2017-08-29T06:28:39.188Z,1375
2017-08-29T06:29:39.222Z,1370
2017-08-29T06:30:39.294Z,1390
2017-08-29T06:31:39.303Z,1450
2017-08-29T06:32:39.338Z,1470
2017-08-29T06:33:39.390Z,1470
2017-08-29T06:34:39.412Z,1510
2017-08-29T06:35:39.459Z,1555
2017-08-29T06:36:38.876Z,1525
2017-08-29T06:37:39.612Z,1475
2017-08-29T06:38:39.348Z,1565
2017-08-29T06:39:39.769Z,1655
2017-08-29T06:40:40.498Z,1670
2017-08-29T06:41:40.532Z,1610
2017-08-29T06:42:40.598Z,1590
2017-08-29T06:43:40.947Z,1575
2017-08-29T06:44:40.716Z,1540
2017-08-29T06:45:41.119Z,1585
2017-08-29T06:46:40.901Z,1620
2017-08-29T06:47:41.635Z,1645
2017-08-29T06:48:41.678Z,1675
2017-08-29T06:49:41.724Z,1675
2017-08-29T06:50:42.074Z,1615
2017-08-29T06:51:41.797Z,1640
2017-08-29T06:52:42.160Z,1690
2017-08-29T06:53:41.853Z,1660
2017-08-29T06:54:42.232Z,1685
2017-08-29T06:55:42.273Z,1660
2017-08-29T06:56:41.689Z,1720
2017-08-29T06:57:42.759Z,1720
2017-08-29T06:58:42.804Z,1690
2017-08-29T06:59:42.190Z,1715
2017-08-29T07:00:42.946Z,1745
2017-08-29T07:01:43.028Z,1765
2017-08-29T07:02:43.432Z,1775
2017-08-29T07:03:43.478Z,1795
2017-08-29T07:04:42.887Z,1740
2017-08-29T07:05:43.006Z,1800
2017-08-29T07:06:44.015Z,1850
2017-08-29T07:07:44.036Z,1805
2017-08-29T07:08:44.073Z,1835
2017-08-29T07:09:44.119Z,1860
2017-08-29T07:10:43.842Z,1825
2017-08-29T07:11:44.242Z,1840
2017-08-29T07:12:44.285Z,1685
2017-08-29T07:13:44.338Z,1655
2017-08-29T07:14:44.677Z,1800
2017-08-29T07:15:44.414Z,1810
2017-08-29T07:16:44.457Z,1815
2017-08-29T07:17:44.528Z,1755
2017-08-29T07:18:44.846Z,1810
2017-08-29T07:19:44.881Z,1915
2017-08-29T07:20:44.929Z,1885
2017-08-29T07:21:44.973Z,1825
2017-08-29T07:22:44.385Z,1865
2017-08-29T07:23:44.505Z,1835
2017-08-29T07:24:45.251Z,1800
2017-08-29T07:25:45.270Z,1830
2017-08-29T07:26:45.336Z,1925
2017-08-29T07:27:46.058Z,1925
2017-08-29T07:28:46.119Z,1920
2017-08-29T07:29:45.875Z,1920
2017-08-29T07:30:46.184Z,1910
2017-08-29T07:31:45.913Z,2000
2017-08-29T07:32:46.261Z,1995
2017-08-29T07:33:46.307Z,1990
2017-08-29T07:34:46.349Z,1945
2017-08-29T07:35:46.386Z,1975
2017-08-29T07:36:46.126Z,2075
2017-08-29T07:37:46.143Z,2025
2017-08-29T07:38:46.527Z,2015
2017-08-29T07:39:45.930Z,2045
2017-08-29T07:40:46.644Z,1975
2017-08-29T07:41:46.686Z,2005
2017-08-29T07:42:46.421Z,2030
2017-08-29T07:43:47.136Z,2000
2017-08-29T07:44:46.882Z,2045
2017-08-29T07:45:47.227Z,2025
2017-08-29T07:46:47.357Z,2085
2017-08-29T07:47:46.653Z,2105
2017-08-29T07:48:47.406Z,2125
2017-08-29T07:49:47.120Z,2230
2017-08-29T07:50:47.864Z,2165
2017-08-29T07:51:47.916Z,2085
2017-08-29T07:52:47.954Z,2180
2017-08-29T07:53:48.007Z,2075
2017-08-29T07:54:48.042Z,2070
2017-08-29T07:55:48.083Z,2125
2017-08-29T07:56:48.192Z,2100
2017-08-29T07:57:47.861Z,2160
2017-08-29T07:58:48.218Z,2215
2017-08-29T07:59:47.624Z,2075
2017-08-29T08:00:48.044Z,2020
2017-08-29T08:01:48.790Z,2120
2017-08-29T08:02:49.200Z,2105
2017-08-29T08:03:49.239Z,2100
2017-08-29T08:04:49.605Z,2135
2017-08-29T08:05:49.638Z,2165
2017-08-29T08:06:49.679Z,2170
2017-08-29T08:07:49.421Z,2200
2017-08-29T08:08:49.784Z,2320
2017-08-29T08:09:49.506Z,2255
2017-08-29T08:10:49.554Z,2245
2017-08-29T08:11:49.576Z,2235
2017-08-29T08:12:49.304Z,2320
2017-08-29T08:13:50.062Z,2320
2017-08-29T08:14:49.782Z,2300
2017-08-29T08:15:50.138Z,2350
2017-08-29T08:16:50.181Z,2275
2017-08-29T08:17:50.233Z,2285
2017-08-29T08:18:50.268Z,2235
2017-08-29T08:19:50.007Z,2335
2017-08-29T08:20:50.026Z,2310
2017-08-29T08:21:50.405Z,2345
2017-08-29T08:22:50.449Z,2420
2017-08-29T08:23:49.852Z,2375
2017-08-29T08:24:50.914Z,2395
2017-08-29T08:25:50.634Z,2460
2017-08-29T08:26:50.690Z,2470
2017-08-29T08:27:51.044Z,2050
2017-08-29T08:28:51.090Z,1835
2017-08-29T08:29:50.830Z,1940
2017-08-29T08:30:51.176Z,1900
2017-08-29T08:31:50.580Z,1760
2017-08-29T08:32:50.329Z,1750
2017-08-29T08:33:51.329Z,1765
2017-08-29T08:34:51.050Z,1880
2017-08-29T08:35:51.096Z,2105
2017-08-29T08:36:51.141Z,2190
2017-08-29T08:37:51.181Z,2060
2017-08-29T08:38:50.913Z,2150
2017-08-29T08:39:51.358Z,2385
2017-08-29T08:40:51.733Z,2455
2017-08-29T08:41:51.430Z,2340
2017-08-29T08:42:51.486Z,2405
2017-08-29T08:43:51.845Z,2510
2017-08-29T08:44:51.898Z,2500
2017-08-29T08:45:51.310Z,2395
2017-08-29T08:46:52.041Z,2315
2017-08-29T08:47:52.089Z,2420
2017-08-29T08:48:51.819Z,2495
2017-08-29T08:49:52.570Z,2475
2017-08-29T08:50:52.612Z,2550
2017-08-29T08:51:51.704Z,2705
2017-08-29T08:52:52.451Z,2645
2017-08-29T08:53:52.844Z,2460
2017-08-29T08:54:52.891Z,2435
2017-08-29T08:55:53.284Z,2420
2017-08-29T08:56:52.985Z,2430
2017-08-29T08:57:53.043Z,2480
2017-08-29T08:58:53.408Z,2485
2017-08-29T08:59:53.456Z,2395
2017-08-29T09:00:53.523Z,2425
2017-08-29T09:01:52.923Z,2525
2017-08-29T09:02:53.649Z,2530
2017-08-29T09:03:53.076Z,2475
2017-08-29T09:04:54.153Z,2480
2017-08-29T09:05:53.311Z,2525
2017-08-29T09:06:54.067Z,2505
2017-08-29T09:07:54.538Z,2540
2017-08-29T09:08:54.485Z,2615
2017-08-29T09:09:54.243Z,2535
2017-08-29T09:10:54.582Z,2495
2017-08-29T09:11:54.321Z,2550
2017-08-29T09:12:54.666Z,2680
2017-08-29T09:13:54.406Z,2650
2017-08-29T09:14:54.818Z,2645
2017-08-29T09:15:54.237Z,2540
2017-08-29T09:16:55.309Z,2560
2017-08-29T09:17:55.041Z,2550
2017-08-29T09:18:55.423Z,2560
2017-08-29T09:19:55.134Z,2560
2017-08-29T09:20:55.508Z,2575
2017-08-29T09:21:55.216Z,2520
2017-08-29T09:22:55.583Z,2540
2017-08-29T09:23:55.664Z,2650
2017-08-29T09:24:55.365Z,2540
2017-08-29T09:25:55.732Z,2440
2017-08-29T09:26:55.785Z,2460
2017-08-29T09:27:55.823Z,2465
2017-08-29T09:28:55.549Z,2525
2017-08-29T09:29:55.579Z,2505
2017-08-29T09:30:55.673Z,2595
2017-08-29T09:31:56.017Z,2780
2017-08-29T09:32:56.055Z,2630
2017-08-29T09:33:56.154Z,2500
2017-08-29T09:34:56.155Z,2550
2017-08-29T09:35:55.557Z,2625
2017-08-29T09:36:56.538Z,2625
2017-08-29T09:37:55.731Z,2645
2017-08-29T09:38:56.485Z,2650
2017-08-29T09:39:56.213Z,2640
2017-08-29T09:40:56.153Z,2650
2017-08-29T09:41:56.631Z,2765
2017-08-29T09:42:56.359Z,2595
2017-08-29T09:43:56.728Z,2740
2017-08-29T09:44:56.450Z,3000
2017-08-29T09:45:56.841Z,2880
2017-08-29T09:46:56.548Z,2670
2017-08-29T09:47:56.970Z,3135
2017-08-29T09:48:57.015Z,3425
2017-08-29T09:49:57.056Z,3165
2017-08-29T09:50:57.211Z,3085
2017-08-29T09:51:57.152Z,3130
2017-08-29T09:52:56.897Z,3020
2017-08-29T09:53:57.309Z,2830
2017-08-29T09:54:57.047Z,2335
2017-08-29T09:55:57.158Z,1955
2017-08-29T09:56:57.823Z,1630
2017-08-29T09:57:57.560Z,1420
2017-08-29T09:58:57.589Z,1225
2017-08-29T09:59:57.967Z,1130
2017-08-29T10:00:58.217Z,1105
2017-08-29T10:01:57.740Z,1050
2017-08-29T10:02:57.779Z,1005
2017-08-29T10:03:57.532Z,945
2017-08-29T10:04:57.976Z,900
2017-08-29T10:05:58.733Z,870
2017-08-29T10:06:58.780Z,830
2017-08-29T10:07:59.292Z,835
2017-08-29T10:08:58.893Z,830
2017-08-29T10:09:59.243Z,805
2017-08-29T10:10:59.271Z,750
2017-08-29T10:11:59.015Z,710
2017-08-29T10:12:59.443Z,700
2017-08-29T10:13:59.861Z,685
2017-08-29T10:15:00.219Z,675
2017-08-29T10:16:00.259Z,665
2017-08-29T10:17:00.305Z,655
2017-08-29T10:18:00.433Z,650
2017-08-29T10:19:00.084Z,645
2017-08-29T10:20:00.446Z,650
2017-08-29T10:21:00.167Z,655
2017-08-29T10:22:00.221Z,645
2017-08-29T10:23:00.585Z,655
2017-08-29T10:24:00.297Z,655
2017-08-29T10:25:00.707Z,640
2017-08-29T10:26:00.727Z,625
2017-08-29T10:27:00.185Z,630
2017-08-29T10:28:00.617Z,625
2017-08-29T10:29:00.974Z,615
2017-08-29T10:30:01.029Z,625
2017-08-29T10:31:00.421Z,630
2017-08-29T10:32:01.484Z,625
2017-08-29T10:33:01.218Z,635
2017-08-29T10:34:01.250Z,640
2017-08-29T10:35:01.299Z,655
2017-08-29T10:36:01.326Z,645
2017-08-29T10:37:01.708Z,660
2017-08-29T10:38:01.743Z,660
2017-08-29T10:39:01.153Z,635
2017-08-29T10:40:02.233Z,645
2017-08-29T10:41:02.263Z,645
2017-08-29T10:42:02.313Z,625
2017-08-29T10:43:02.034Z,625
2017-08-29T10:44:02.088Z,605
2017-08-29T10:45:02.125Z,595
2017-08-29T10:46:02.144Z,610
2017-08-29T10:47:02.184Z,610
2017-08-29T10:48:02.235Z,600
2017-08-29T10:49:02.657Z,605
2017-08-29T10:50:02.759Z,605
2017-08-29T10:51:02.042Z,595
2017-08-29T10:52:02.793Z,585
2017-08-29T10:53:02.831Z,570
2017-08-29T10:54:02.872Z,550
2017-08-29T10:55:02.626Z,575
2017-08-29T10:56:03.011Z,605
2017-08-29T10:57:02.030Z,600
2017-08-29T10:58:03.070Z,600
2017-08-29T10:59:02.794Z,585
2017-08-29T11:00:03.131Z,525
2017-08-29T11:01:03.162Z,550
2017-08-29T11:02:03.200Z,515
2017-08-29T11:03:02.928Z,535
2017-08-29T11:04:02.983Z,545
2017-08-29T11:05:03.330Z,525
2017-08-29T11:06:03.488Z,440
2017-08-29T11:07:03.423Z,385
2017-08-29T11:08:03.870Z,370
2017-08-29T11:09:03.515Z,365
2017-08-29T11:10:03.596Z,350
2017-08-29T11:11:03.088Z,345
2017-08-29T11:12:03.324Z,340
2017-08-29T11:13:03.396Z,320
2017-08-29T11:14:04.448Z,315
2017-08-29T11:15:04.551Z,310
2017-08-29T11:16:04.534Z,305
2017-08-29T11:17:04.570Z,300
2017-08-29T11:18:04.299Z,290
2017-08-29T11:19:04.352Z,285
2017-08-29T11:20:04.710Z,280
2017-08-29T11:21:04.423Z,275
2017-08-29T11:22:04.464Z,275
2017-08-29T11:23:04.506Z,265
2017-08-29T11:24:04.231Z,260
2017-08-29T11:25:05.005Z,255
2017-08-29T11:26:04.675Z,255
2017-08-29T11:27:05.072Z,250
2017-08-29T11:28:05.128Z,250
2017-08-29T11:29:05.485Z,250
2017-08-29T11:30:05.522Z,250
2017-08-29T11:31:04.907Z,250
2017-08-29T11:32:05.650Z,245
2017-08-29T11:33:05.667Z,245
2017-08-29T11:34:06.056Z,240
2017-08-29T11:35:06.474Z,245
2017-08-29T11:36:05.916Z,235
2017-08-29T11:37:06.640Z,235
2017-08-29T11:38:06.669Z,230
2017-08-29T11:39:06.092Z,225
2017-08-29T11:40:06.879Z,225
2017-08-29T11:41:07.305Z,225
2017-08-29T11:42:07.321Z,225
2017-08-29T11:43:06.715Z,220
2017-08-29T11:44:07.826Z,215
2017-08-29T11:45:07.943Z,215
2017-08-29T11:46:07.565Z,215
2017-08-29T11:47:07.891Z,210
2017-08-29T11:48:07.615Z,210
2017-08-29T11:49:07.968Z,210
2017-08-29T11:50:07.765Z,210
2017-08-29T11:51:07.737Z,205
2017-08-29T11:52:08.090Z,205
2017-08-29T11:53:08.132Z,205
2017-08-29T11:54:07.857Z,200
2017-08-29T11:55:08.244Z,200
2017-08-29T11:56:07.406Z,195
2017-08-29T11:57:07.840Z,200
2017-08-29T11:58:08.582Z,195
2017-08-29T11:59:08.935Z,195
2017-08-29T12:00:08.382Z,195
2017-08-29T12:01:09.114Z,195
2017-08-29T12:02:09.168Z,195
2017-08-29T12:03:09.523Z,195
2017-08-29T12:04:09.557Z,195
2017-08-29T12:05:09.661Z,190
2017-08-29T12:06:09.002Z,190
2017-08-29T12:07:09.690Z,190
2017-08-29T12:08:09.523Z,190
2017-08-29T12:09:09.122Z,185
2017-08-29T12:10:09.854Z,185
2017-08-29T12:11:09.251Z,185
2017-08-29T12:12:10.322Z,185
2017-08-29T12:13:10.278Z,185
2017-08-29T12:14:10.430Z,185
2017-08-29T12:15:10.525Z,190
2017-08-29T12:16:10.513Z,195
2017-08-29T12:17:10.507Z,190
2017-08-29T12:18:10.234Z,190
2017-08-29T12:19:10.380Z,190
2017-08-29T12:20:10.954Z,190
2017-08-29T12:21:11.175Z,190
2017-08-29T12:22:10.546Z,190
2017-08-29T12:23:11.604Z,190
2017-08-29T12:24:11.322Z,190
2017-08-29T12:25:12.037Z,185
2017-08-29T12:26:11.105Z,185
2017-08-29T12:27:11.857Z,185
2017-08-29T12:28:11.892Z,185
2017-08-29T12:29:11.955Z,185
2017-08-29T12:30:12.381Z,185
2017-08-29T12:31:12.404Z,185
2017-08-29T12:32:12.824Z,185
2017-08-29T12:33:12.821Z,180
2017-08-29T12:34:13.197Z,180
2017-08-29T12:35:13.279Z,180
2017-08-29T12:36:12.643Z,180
2017-08-29T12:37:13.769Z,180
2017-08-29T12:38:13.418Z,175
2017-08-29T12:39:13.468Z,175
2017-08-29T12:40:13.831Z,175
2017-08-29T12:41:13.605Z,175
2017-08-29T12:42:13.333Z,170
2017-08-29T12:43:13.496Z,170
2017-08-29T12:44:14.238Z,170
2017-08-29T12:45:14.333Z,165
2017-08-29T12:46:14.009Z,165
2017-08-29T12:47:13.470Z,165
2017-08-29T12:48:14.134Z,160
2017-08-29T12:49:15.220Z,160
2017-08-29T12:50:14.907Z,160
2017-08-29T12:51:15.635Z,160
2017-08-29T12:52:15.669Z,160
2017-08-29T12:53:15.058Z,160
2017-08-29T12:54:15.782Z,160
2017-08-29T12:55:15.844Z,160
2017-08-29T12:56:15.568Z,160
2017-08-29T12:57:16.314Z,160
2017-08-29T12:58:16.659Z,160
2017-08-29T12:59:16.395Z,155
2017-08-29T13:00:16.753Z,155
2017-08-29T13:01:16.477Z,155
2017-08-29T13:02:16.481Z,155
2017-08-29T13:03:16.874Z,160
2017-08-29T13:04:15.934Z,155
2017-08-29T13:05:16.645Z,155
2017-08-29T13:06:16.404Z,155
2017-08-29T13:07:17.144Z,155
2017-08-29T13:08:17.244Z,155
2017-08-29T13:09:17.544Z,155
2017-08-29T13:10:17.260Z,155
2017-08-29T13:11:17.624Z,150
2017-08-29T13:12:17.640Z,150
2017-08-29T13:13:17.688Z,150
2017-08-29T13:14:17.734Z,150
2017-08-29T13:15:17.781Z,150
2017-08-29T13:16:17.817Z,150
2017-08-29T13:17:17.527Z,150
2017-08-29T13:18:17.880Z,150
2017-08-29T13:19:17.604Z,145
2017-08-29T13:20:17.441Z,150
2017-08-29T13:21:18.154Z,145
2017-08-29T13:22:18.205Z,145
2017-08-29T13:23:17.927Z,145
2017-08-29T13:24:18.280Z,145
2017-08-29T13:25:17.689Z,145
2017-08-29T13:26:18.746Z,145
2017-08-29T13:27:18.484Z,145
2017-08-29T13:28:18.509Z,145
2017-08-29T13:29:18.593Z,145
2017-08-29T13:30:19.025Z,145
2017-08-29T13:31:19.378Z,145
2017-08-29T13:32:19.418Z,145
2017-08-29T13:33:19.141Z,145
2017-08-29T13:34:19.231Z,145
2017-08-29T13:35:19.757Z,145
2017-08-29T13:36:20.008Z,145
2017-08-29T13:37:19.426Z,145
2017-08-29T13:38:19.526Z,145
2017-08-29T13:39:19.937Z,145
2017-08-29T13:40:20.826Z,145
2017-08-29T13:41:20.699Z,145
2017-08-29T13:42:20.744Z,145
2017-08-29T13:43:21.107Z,145
2017-08-29T13:44:20.839Z,140
2017-08-29T13:45:21.193Z,140
2017-08-29T13:46:20.602Z,140
2017-08-29T13:47:20.938Z,140
2017-08-29T13:48:21.311Z,140
2017-08-29T13:49:21.032Z,140
2017-08-29T13:50:21.074Z,140
2017-08-29T13:51:21.120Z,135
2017-08-29T13:52:21.522Z,135
2017-08-29T13:53:21.552Z,135
2017-08-29T13:54:21.286Z,135
2017-08-29T13:55:22.389Z,135
2017-08-29T13:56:22.385Z,135
2017-08-29T13:57:22.414Z,130
2017-08-29T13:58:22.459Z,130
2017-08-29T13:59:21.838Z,130